»·PEaware :: N714WV KVCV-KLAS

N714WV :: KVCV-KLAS

FLIGHT INFORMATION

Flight Status: Arrived
Operator: Privately registered:
United States
More flights under this callsign
Pilot: Corey M. (20089)
Aircraft: CIRRUS SR-22
(SR22)
More flights by this aircraft type
Origin: KVCV Socal Logistics
United States
Destination: KLAS McCarran Intl
United States
More flights between these airports :: More routes between these airports
Route: +HEC CRESO4
File this flight plan on PilotEdge
Remarks:
Altitude:
(Current/Filed)
4,000ft
Speed:
(Current/Filed)
165kts
Departed: 11-Aug-20 04:02 PM
Arrived: 11-Aug-20 04:57 PM
Distance/Time
Traveled:
141nm/0:54
Distance/Time
To Go:
Arrived

Flight Plot

Page will automatically refresh every two minutes.

Flight plan parsing failed; only flown route is shown


Map Options




Map Legend


Flown Route
Filed Route
Departure Airport
Arrival Airport
Navaid (VOR, NDB)
Fix

Horizontal Profiles

Position Reports

Time Latitude Longitude Heading Altitude Ground
Speed
11-Aug-20 15:41 34.588333 -117.376341 314 2870ft 0kts
11-Aug-20 15:42 34.588333 -117.376341 314 2870ft 0kts
11-Aug-20 15:42 34.588333 -117.376341 314 2870ft 0kts
11-Aug-20 15:44 34.588333 -117.376341 314 2870ft 0kts
11-Aug-20 15:44 34.588333 -117.376341 314 2870ft 0kts
11-Aug-20 15:45 34.588333 -117.376341 314 2870ft 0kts
11-Aug-20 15:46 34.588333 -117.376341 314 2870ft 0kts
11-Aug-20 15:47 34.588333 -117.376341 314 2870ft 0kts
11-Aug-20 15:48 34.588333 -117.376341 314 2870ft 0kts
11-Aug-20 15:49 34.588333 -117.376341 314 2870ft 0kts
11-Aug-20 15:50 34.588333 -117.376341 314 2870ft 0kts
11-Aug-20 15:51 34.588333 -117.376341 314 2870ft 0kts
11-Aug-20 15:52 34.588333 -117.376341 314 2870ft 0kts
11-Aug-20 15:53 34.588333 -117.376341 314 2870ft 0kts
11-Aug-20 15:54 34.588333 -117.376341 314 2870ft 0kts
11-Aug-20 15:55 34.588333 -117.376341 314 2870ft 0kts
11-Aug-20 15:56 34.589752 -117.376388 41 2867ft 17kts
11-Aug-20 15:57 34.592825 -117.372745 44 2861ft 17kts
11-Aug-20 15:58 34.594823 -117.367599 13 2851ft 22kts
11-Aug-20 15:59 34.598809 -117.366674 11 2843ft 0kts
11-Aug-20 16:00 34.598809 -117.366674 11 2843ft 0kts
11-Aug-20 16:01 34.598170 -117.369291 222 2847ft 69kts
11-Aug-20 16:02 34.590151 -117.399178 261 3949ft 102kts
11-Aug-20 16:03 34.587774 -117.435858 261 4968ft 112kts
11-Aug-20 16:04 34.588169 -117.473167 305 5964ft 117kts
11-Aug-20 16:05 34.614517 -117.461436 51 6907ft 123kts
11-Aug-20 16:06 34.637744 -117.429014 51 7618ft 129kts
11-Aug-20 16:07 34.661393 -117.395742 51 8321ft 131kts
11-Aug-20 16:08 34.685295 -117.361871 51 9025ft 132kts
11-Aug-20 16:09 34.709265 -117.327605 51 9726ft 134kts
11-Aug-20 16:10 34.721054 -117.287170 89 10422ft 129kts
11-Aug-20 16:11 34.724915 -117.238264 87 11022ft 175kts
11-Aug-20 16:12 34.730853 -117.174715 86 11024ft 195kts
11-Aug-20 16:13 34.737226 -117.108275 86 11017ft 198kts
11-Aug-20 16:14 34.743643 -117.041094 86 10992ft 202kts
11-Aug-20 16:15 34.750118 -116.972477 87 10968ft 206kts
11-Aug-20 16:16 34.756670 -116.902576 87 10997ft 207kts
11-Aug-20 16:17 34.763219 -116.832164 87 11029ft 212kts
11-Aug-20 16:18 34.769832 -116.760767 87 11029ft 212kts
11-Aug-20 16:19 34.776418 -116.689189 87 11029ft 213kts
11-Aug-20 16:20 34.782983 -116.617531 87 11029ft 213kts
11-Aug-20 16:21 34.789488 -116.545753 87 11029ft 213kts
11-Aug-20 16:22 34.796284 -116.473804 77 11026ft 215kts
11-Aug-20 16:23 34.833104 -116.415942 47 11030ft 218kts
11-Aug-20 16:24 34.874506 -116.361711 46 11039ft 218kts
11-Aug-20 16:25 34.915958 -116.307553 47 11051ft 217kts
11-Aug-20 16:26 34.957043 -116.253714 48 11061ft 216kts
11-Aug-20 16:27 34.997821 -116.200188 48 11063ft 214kts
11-Aug-20 16:28 35.038161 -116.147163 48 11058ft 213kts
11-Aug-20 16:29 35.078287 -116.094323 48 11056ft 212kts
11-Aug-20 16:30 35.118537 -116.041248 48 11053ft 211kts
11-Aug-20 16:31 35.158504 -115.988482 48 11053ft 211kts
11-Aug-20 16:32 35.198350 -115.935777 48 11053ft 211kts
11-Aug-20 16:33 35.238250 -115.882932 48 11041ft 212kts
11-Aug-20 16:34 35.278730 -115.829210 48 10838ft 216kts
11-Aug-20 16:35 35.319561 -115.774994 48 10635ft 217kts
11-Aug-20 16:36 35.360819 -115.720161 48 10235ft 222kts
11-Aug-20 16:37 35.401904 -115.664666 49 10054ft 214kts
11-Aug-20 16:38 35.440869 -115.609939 50 10055ft 211kts
11-Aug-20 16:39 35.481851 -115.557568 47 10038ft 215kts
11-Aug-20 16:40 35.522628 -115.503531 46 10038ft 216kts
11-Aug-20 16:41 35.563335 -115.449218 47 10038ft 216kts
11-Aug-20 16:42 35.604003 -115.394584 47 10038ft 216kts
11-Aug-20 16:43 35.644766 -115.339779 48 10036ft 216kts
11-Aug-20 16:44 35.685236 -115.285212 48 10036ft 216kts
11-Aug-20 16:45 35.731552 -115.239960 22 9922ft 219kts
11-Aug-20 16:46 35.788165 -115.209182 21 9428ft 225kts
11-Aug-20 16:47 35.846740 -115.183029 11 8928ft 222kts
11-Aug-20 16:48 35.905630 -115.163792 11 8427ft 213kts
11-Aug-20 16:49 35.962159 -115.144916 11 8030ft 204kts
11-Aug-20 16:50 36.014408 -115.128230 359 7230ft 159kts
11-Aug-20 16:51 36.046216 -115.134389 340 6156ft 101kts
11-Aug-20 16:52 36.075002 -115.137314 349 5071ft 120kts
11-Aug-20 16:53 36.103753 -115.116635 33 4006ft 112kts
11-Aug-20 16:54 36.121472 -115.131515 271 2843ft 83kts
11-Aug-20 16:55 36.108112 -115.151009 217 2232ft 78kts
11-Aug-20 16:56 36.092556 -115.160593 207 2109ft 29kts
11-Aug-20 16:57 36.089313 -115.163322 296 2127ft 0kts
11-Aug-20 16:58 36.089445 -115.164867 277 2133ft 4kts
11-Aug-20 16:59 36.089912 -115.165675 89 2134ft 0kts
11-Aug-20 17:00 36.089912 -115.165675 89 2134ft 0kts
11-Aug-20 17:01 36.089912 -115.165675 89 2134ft 0kts
11-Aug-20 17:02 36.089912 -115.165675 89 2134ft 0kts
11-Aug-20 17:03 36.089912 -115.165675 89 2134ft 0kts
11-Aug-20 17:04 36.089912 -115.165675 89 2134ft 0kts
11-Aug-20 17:05 36.089912 -115.165675 89 2134ft 0kts
11-Aug-20 17:06 36.089912 -115.165675 89 2134ft 0kts
11-Aug-20 17:07 36.089912 -115.165675 89 2134ft 0kts
11-Aug-20 17:08 36.089912 -115.165675 89 2134ft 0kts
11-Aug-20 17:09 36.089912 -115.165675 89 2134ft 0kts
11-Aug-20 17:10 36.089912 -115.165675 89 2134ft 0kts

Navigation Log

Ident Type
Flight plan parsing failed, navigation log unavailable